Time;durP1;ratioP1;P1;durP2;ratioP2;P2;SDS_P1;SDS_P2;PMS_P1;PMS_P2;Temp;Humidity;BMP_temperature;BMP_pressure;BME280_temperature;BME280_humidity;BME280_pressure;Samples;Min_cycle;Max_cycle;Signal;HPM_P1;HPM_P2
2023/08/04 00:00:52;;;;;;;12.02;5.90;;;13.60;99.90;;;12.87;100.00;101253.16;4170123;28;20067;-83
2023/08/04 00:02:53;;;;;;;10.98;6.70;;;13.50;99.90;;;12.86;100.00;101254.16;4158489;28;20437;-82
2023/08/04 00:04:54;;;;;;;9.80;6.03;;;13.60;99.90;;;12.87;100.00;101261.13;4169628;28;20112;-83
2023/08/04 00:06:55;;;;;;;17.83;6.22;;;13.50;99.90;;;12.87;100.00;101262.94;4186263;28;20082;-83
2023/08/04 00:08:56;;;;;;;14.60;6.15;;;13.50;99.90;;;12.84;100.00;101277.31;4185951;28;20447;-83
2023/08/04 00:10:57;;;;;;;14.02;6.55;;;13.50;99.90;;;12.80;100.00;101270.66;4158567;28;20030;-83
2023/08/04 00:12:58;;;;;;;10.80;5.40;;;13.50;99.90;;;12.82;100.00;101268.69;4152176;28;20030;-83
2023/08/04 00:14:59;;;;;;;16.02;7.10;;;13.50;99.90;;;12.79;100.00;101263.69;4151894;28;20026;-83
2023/08/04 00:17:00;;;;;;;12.15;6.10;;;13.50;99.90;;;12.79;100.00;101269.00;4177459;28;20040;-83
2023/08/04 00:19:00;;;;;;;9.68;6.28;;;13.50;99.90;;;12.80;100.00;101273.31;4169683;28;20021;-83
2023/08/04 00:21:03;;;;;;;9.82;5.05;;;13.50;99.90;;;12.78;100.00;101278.75;4164744;28;20085;-83
2023/08/04 00:23:04;;;;;;;17.98;6.50;;;13.40;99.90;;;12.71;100.00;101272.44;4169427;28;20109;-83
2023/08/04 00:25:06;;;;;;;13.85;5.93;;;13.40;99.90;;;12.76;100.00;101280.72;4135582;28;20030;-83
2023/08/04 00:27:07;;;;;;;15.45;6.00;;;13.40;99.90;;;12.75;100.00;101283.56;4179427;28;20392;-83
2023/08/04 00:29:08;;;;;;;15.15;5.90;;;13.40;99.90;;;12.75;100.00;101284.34;4154866;28;20065;-83
2023/08/04 00:31:11;;;;;;;13.43;6.03;;;13.40;99.90;;;12.72;100.00;101287.31;4155738;28;20029;-83
2023/08/04 00:33:12;;;;;;;10.48;5.47;;;13.40;99.90;;;12.70;100.00;101283.16;4161751;28;20038;-83
2023/08/04 00:35:12;;;;;;;11.68;5.25;;;13.40;99.90;;;12.70;100.00;101291.13;4151591;28;20565;-83
2023/08/04 00:37:13;;;;;;;12.75;5.88;;;13.40;99.90;;;12.67;100.00;101291.44;4166030;28;20432;-83
2023/08/04 00:39:15;;;;;;;11.45;5.78;;;13.40;99.90;;;12.66;100.00;101295.88;4169132;28;20029;-83
2023/08/04 00:41:16;;;;;;;11.25;5.85;;;13.40;99.90;;;12.67;100.00;101294.06;4161821;28;20030;-83
2023/08/04 00:43:16;;;;;;;12.23;5.45;;;13.40;99.90;;;12.63;100.00;101300.69;4152855;28;20033;-83
2023/08/04 00:45:17;;;;;;;11.23;5.03;;;13.30;99.90;;;12.59;100.00;101294.03;4164353;28;20040;-83
2023/08/04 00:47:19;;;;;;;12.38;6.15;;;13.30;99.90;;;12.60;100.00;101307.09;4155378;28;20532;-83
2023/08/04 00:49:20;;;;;;;9.13;4.47;;;13.30;99.90;;;12.60;100.00;101307.09;4162018;28;20545;-83
2023/08/04 00:51:22;;;;;;;12.13;5.35;;;13.30;99.90;;;12.61;100.00;101305.28;4152664;28;20025;-83
2023/08/04 00:53:23;;;;;;;10.07;5.68;;;13.30;99.90;;;12.55;100.00;101300.59;4163543;28;20111;-83
2023/08/04 00:55:24;;;;;;;16.92;6.18;;;13.30;99.90;;;12.59;100.00;101304.63;4151649;28;20510;-83
2023/08/04 00:57:25;;;;;;;12.10;5.50;;;13.30;99.90;;;12.58;100.00;101308.22;4156722;28;20071;-83
2023/08/04 00:59:25;;;;;;;11.00;6.00;;;13.30;99.90;;;12.58;100.00;101308.22;4167737;28;20035;-83
2023/08/04 01:01:27;;;;;;;9.77;5.15;;;13.30;99.90;;;12.56;100.00;101310.22;4167503;28;20021;-83
2023/08/04 01:03:28;;;;;;;9.60;5.22;;;13.30;99.90;;;12.55;100.00;101303.25;4152811;28;20042;-83
2023/08/04 01:05:46;;;;;;;12.85;5.65;;;13.20;99.90;;;12.53;100.00;101307.88;4156224;28;20026;-83
2023/08/04 01:08:04;;;;;;;10.18;5.45;;;13.20;99.90;;;12.53;100.00;101310.53;4151151;28;20034;-83
2023/08/04 01:10:21;;;;;;;16.90;6.30;;;13.20;99.90;;;12.53;100.00;101315.81;4154162;28;20544;-83
2023/08/04 01:12:59;;;;;;;14.60;5.97;;;13.20;99.90;;;12.51;100.00;101315.16;4168741;28;20025;-83
2023/08/04 01:15:04;;;;;;;12.35;5.13;;;13.20;99.90;;;12.49;100.00;101319.75;4164570;28;20037;-83
2023/08/04 01:17:27;;;;;;;15.38;5.38;;;13.20;99.90;;;12.48;100.00;101313.66;4158981;28;20105;-82
2023/08/04 01:19:28;;;;;;;11.90;5.78;;;13.20;99.90;;;12.47;100.00;101321.72;4152574;28;20030;-83
2023/08/04 01:21:42;;;;;;;9.57;5.38;;;13.20;99.90;;;12.47;100.00;101319.09;4167162;28;20044;-83
2023/08/04 01:23:43;;;;;;;9.63;5.25;;;13.20;99.90;;;12.42;100.00;101318.72;4152090;28;20398;-83
2023/08/04 01:25:44;;;;;;;14.23;5.35;;;13.10;99.90;;;12.44;100.00;101327.31;4162360;28;20033;-83
2023/08/04 01:27:52;;;;;;;11.70;6.53;;;13.10;99.90;;;12.41;100.00;101322.34;4152352;28;20034;-83
2023/08/04 01:29:55;;;;;;;10.18;4.88;;;13.10;99.90;;;12.41;100.00;101325.00;4150987;28;20046;-83
2023/08/04 01:31:58;;;;;;;9.13;4.47;;;13.10;99.90;;;12.38;100.00;101322.66;4158260;28;20088;-83
2023/08/04 01:33:59;;;;;;;9.15;4.72;;;13.10;99.90;;;12.37;100.00;101327.09;4154942;28;20022;-82
2023/08/04 01:36:00;;;;;;;7.38;4.35;;;13.10;99.90;;;12.37;100.00;101331.56;4153444;28;20030;-83
2023/08/04 01:38:01;;;;;;;9.90;5.25;;;13.10;99.90;;;12.34;100.00;101321.28;4162782;28;20090;-82
2023/08/04 01:40:03;;;;;;;10.77;6.00;;;13.10;99.90;;;12.34;100.00;101331.88;4152240;28;20030;-83
2023/08/04 01:42:04;;;;;;;9.55;5.07;;;13.10;99.90;;;12.34;100.00;101327.41;4167193;28;20023;-83
2023/08/04 01:44:05;;;;;;;11.80;5.90;;;13.00;99.90;;;12.36;100.00;101327.28;4150007;28;20026;-83
2023/08/04 01:46:06;;;;;;;16.38;5.78;;;13.10;99.90;;;12.35;100.00;101328.25;4152212;28;20026;-84
2023/08/04 01:48:07;;;;;;;16.08;6.78;;;13.10;99.90;;;12.35;100.00;101341.47;4152157;28;20038;-84
2023/08/04 01:50:09;;;;;;;12.18;5.47;;;13.10;99.90;;;12.36;100.00;101340.50;4153110;28;20022;-83
2023/08/04 01:52:10;;;;;;;11.68;6.13;;;13.00;99.90;;;12.36;100.00;101343.16;4152017;28;20409;-84
2023/08/04 01:54:11;;;;;;;12.30;5.75;;;13.00;99.90;;;12.31;100.00;101326.88;4150674;28;20034;-84
2023/08/04 01:56:12;;;;;;;13.15;5.53;;;13.00;99.90;;;12.34;100.00;101338.00;4150912;28;20026;-84
2023/08/04 01:58:13;;;;;;;25.38;6.47;;;13.10;99.90;;;12.35;100.00;101344.94;4163753;28;20032;-83
2023/08/04 02:00:13;;;;;;;14.73;5.50;;;13.00;99.90;;;12.33;100.00;101341.63;4168463;28;20033;-83
2023/08/04 02:02:14;;;;;;;13.50;7.10;;;13.00;99.90;;;12.26;100.00;101331.81;4167035;28;20025;-83
2023/08/04 02:04:15;;;;;;;8.13;4.80;;;13.00;99.90;;;12.30;100.00;101343.75;4168381;28;20033;-83
2023/08/04 02:06:16;;;;;;;12.15;6.63;;;13.00;99.90;;;12.33;100.00;101348.75;4156289;28;20084;-83
2023/08/04 02:08:17;;;;;;;13.32;5.90;;;13.00;99.90;;;12.30;100.00;101341.09;4155364;28;20034;-83
2023/08/04 02:10:18;;;;;;;10.73;5.95;;;13.00;99.90;;;12.31;100.00;101350.69;4154117;28;20144;-83
2023/08/04 02:12:19;;;;;;;14.95;6.22;;;13.00;99.90;;;12.30;100.00;101346.41;4155133;28;20405;-83
2023/08/04 02:14:20;;;;;;;9.95;5.38;;;13.00;99.90;;;12.31;100.00;101342.75;4155078;28;20032;-83
2023/08/04 02:16:20;;;;;;;13.52;6.70;;;13.00;99.90;;;12.31;100.00;101348.03;4166633;28;20032;-83
2023/08/04 02:18:21;;;;;;;11.20;5.38;;;13.00;99.90;;;12.27;100.00;101347.53;4155080;28;20030;-83
2023/08/04 02:20:22;;;;;;;11.27;5.65;;;13.00;99.90;;;12.26;100.00;101339.75;4154942;28;20100;-83
2023/08/04 02:22:23;;;;;;;13.23;5.15;;;13.00;99.90;;;12.27;100.00;101341.41;4163973;28;20029;-84
2023/08/04 02:24:24;;;;;;;12.75;5.05;;;13.00;99.90;;;12.26;100.00;101337.09;4153550;28;20508;-83
2023/08/04 02:26:25;;;;;;;19.77;6.13;;;13.00;99.90;;;12.30;100.00;101335.81;4154953;28;20026;-83
2023/08/04 02:28:26;;;;;;;11.93;5.53;;;13.00;99.90;;;12.30;100.00;101346.41;4153699;28;20041;-83
2023/08/04 02:30:26;;;;;;;10.27;4.93;;;13.00;99.90;;;12.24;100.00;101333.78;4169999;28;20042;-83
2023/08/04 02:32:27;;;;;;;13.80;4.50;;;13.00;99.90;;;12.26;100.00;101337.09;4167130;28;20032;-82
2023/08/04 02:34:28;;;;;;;15.60;5.25;;;12.90;99.90;;;12.26;100.00;101343.22;4171224;28;20029;-83
2023/08/04 02:36:30;;;;;;;11.93;4.97;;;13.00;99.90;;;12.27;100.00;101338.75;4163186;28;20030;-83
2023/08/04 02:38:31;;;;;;;7.68;4.28;;;12.90;99.90;;;12.25;100.00;101336.25;4153392;28;20041;-83
2023/08/04 02:40:37;;;;;;;9.27;4.30;;;13.00;99.90;;;12.26;100.00;101342.38;4167995;28;20032;-83
2023/08/04 02:42:38;;;;;;;11.63;4.18;;;12.90;99.90;;;12.25;100.00;101335.41;4171124;28;20034;-83
2023/08/04 02:44:38;;;;;;;13.98;5.13;;;12.90;99.90;;;12.19;100.00;101335.06;4146547;28;20113;-84
2023/08/04 02:46:39;;;;;;;14.25;5.10;;;12.90;99.90;;;12.21;100.00;101333.09;4153392;28;20420;-83
2023/08/04 02:48:40;;;;;;;9.40;4.65;;;12.90;99.90;;;12.17;100.00;101331.75;4167707;28;20021;-83
2023/08/04 02:50:41;;;;;;;10.38;4.38;;;12.90;99.90;;;12.15;100.00;101332.88;4171030;28;20036;-83
2023/08/04 02:52:42;;;;;;;5.63;3.60;;;12.80;99.90;;;12.16;100.00;101335.34;4164217;28;20026;-83
2023/08/04 02:54:43;;;;;;;12.07;5.07;;;12.80;99.90;;;12.17;100.00;101337.03;4154375;28;20033;-83
2023/08/04 02:56:44;;;;;;;17.40;5.60;;;12.80;99.90;;;12.20;100.00;101333.25;4166136;28;20097;-83
2023/08/04 02:58:47;;;;;;;7.28;4.13;;;12.80;99.90;;;12.21;100.00;101337.56;4156294;28;20060;-83
2023/08/04 03:00:47;;;;;;;9.95;4.80;;;12.90;99.90;;;12.24;100.00;101326.69;4163397;28;20394;-83
2023/08/04 03:02:48;;;;;;;9.43;4.30;;;13.00;99.90;;;12.24;100.00;101331.97;4152983;28;20036;-83
2023/08/04 03:04:49;;;;;;;6.72;3.53;;;13.00;99.90;;;12.22;100.00;101323.34;4166970;28;20033;-83
2023/08/04 03:06:51;;;;;;;11.05;3.92;;;12.90;99.90;;;12.25;100.00;101322.19;4170814;28;20500;-83
2023/08/04 03:08:51;;;;;;;11.18;4.25;;;12.90;99.90;;;12.33;100.00;101322.28;4163302;28;20022;-83
2023/08/04 03:10:52;;;;;;;10.98;4.43;;;13.00;99.90;;;12.40;100.00;101318.84;4153059;28;20497;-83
2023/08/04 03:12:53;;;;;;;7.88;3.88;;;13.10;99.90;;;12.46;100.00;101325.34;4148985;28;20089;-83
2023/08/04 03:14:54;;;;;;;10.43;4.75;;;13.10;99.90;;;12.50;100.00;101327.53;4153920;28;20045;-83
2023/08/04 03:16:55;;;;;;;9.52;5.30;;;13.10;99.90;;;12.53;100.00;101323.75;4161122;28;20061;-83
2023/08/04 03:18:56;;;;;;;6.75;4.03;;;13.20;99.90;;;12.57;100.00;101322.47;4152586;28;20445;-83
2023/08/04 03:21:02;;;;;;;7.70;3.92;;;13.20;99.90;;;12.63;100.00;101316.56;4164618;28;20048;-83
2023/08/04 03:23:03;;;;;;;12.00;4.43;;;13.30;99.90;;;12.63;100.00;101317.38;4168080;28;20495;-83
2023/08/04 03:25:05;;;;;;;14.25;5.35;;;13.30;99.90;;;12.71;100.00;101327.19;4163315;28;20109;-83
2023/08/04 03:27:06;;;;;;;9.52;3.80;;;13.40;99.90;;;12.74;100.00;101326.88;4163311;28;20033;-83
2023/08/04 03:29:07;;;;;;;6.30;3.55;;;13.40;99.90;;;12.78;100.00;101326.41;4156313;28;20053;-83
2023/08/04 03:31:08;;;;;;;9.32;3.92;;;13.50;99.90;;;12.77;100.00;101318.63;4152534;28;20478;-84
2023/08/04 03:33:08;;;;;;;9.52;3.88;;;13.50;99.90;;;12.77;100.00;101324.75;4142511;28;20022;-83
2023/08/04 03:35:09;;;;;;;6.97;3.40;;;13.50;99.90;;;12.76;100.00;101325.75;4152587;28;20025;-83
2023/08/04 03:37:10;;;;;;;9.35;4.05;;;13.50;99.90;;;12.71;100.00;101335.97;4153508;28;20022;-83
2023/08/04 03:39:11;;;;;;;10.25;4.63;;;13.40;99.90;;;12.60;100.00;101322.16;4153633;28;20030;-83
2023/08/04 03:41:12;;;;;;;6.82;3.30;;;13.30;99.90;;;12.55;100.00;101335.00;4158023;28;20017;-83
2023/08/04 03:43:13;;;;;;;9.50;3.80;;;13.30;99.90;;;12.50;100.00;101342.59;4152405;28;20049;-83
2023/08/04 03:45:14;;;;;;;9.48;4.00;;;13.20;99.90;;;12.46;100.00;101333.28;4153614;28;20022;-83
2023/08/04 03:47:14;;;;;;;11.45;4.30;;;13.10;99.90;;;12.44;100.00;101340.56;4153494;28;20045;-83
2023/08/04 03:49:15;;;;;;;7.75;3.88;;;13.10;99.90;;;12.47;100.00;101345.53;4152427;28;20038;-83
2023/08/04 03:51:17;;;;;;;7.97;3.83;;;13.10;99.90;;;12.49;100.00;101346.22;4161560;28;20030;-83
2023/08/04 03:53:18;;;;;;;6.18;3.97;;;13.20;99.90;;;12.49;100.00;101347.03;4157189;28;20405;-83
2023/08/04 03:55:19;;;;;;;5.80;3.38;;;13.20;99.90;;;12.50;100.00;101361.13;4152129;28;20037;-83
2023/08/04 03:57:20;;;;;;;8.63;3.70;;;13.20;99.90;;;12.44;100.00;101351.13;4158106;28;20100;-83
2023/08/04 03:59:21;;;;;;;9.65;3.88;;;13.20;99.90;;;12.42;100.00;101361.06;4152175;28;20037;-83
2023/08/04 04:01:22;;;;;;;12.88;4.47;;;13.10;99.90;;;12.40;100.00;101371.78;4168437;28;20437;-83
2023/08/04 04:03:23;;;;;;;10.00;4.65;;;13.10;99.90;;;12.42;100.00;101379.56;4137620;28;20121;-83
2023/08/04 04:05:23;;;;;;;11.95;4.10;;;13.10;99.90;;;12.41;100.00;101370.81;4153798;28;20025;-83
2023/08/04 04:07:24;;;;;;;8.48;4.30;;;13.10;99.90;;;12.46;100.00;101375.63;4151889;28;20068;-82
2023/08/04 04:09:25;;;;;;;9.10;3.80;;;13.20;99.90;;;12.56;100.00;101386.97;4152018;28;20516;-83
2023/08/04 04:11:26;;;;;;;9.35;3.80;;;13.20;99.90;;;12.64;100.00;101385.22;4167441;28;20036;-83
2023/08/04 04:13:27;;;;;;;9.27;4.28;;;13.30;99.90;;;12.75;100.00;101398.19;4168413;28;20025;-83
2023/08/04 04:15:28;;;;;;;12.57;4.65;;;13.40;99.90;;;12.79;100.00;101398.72;4169440;28;20030;-83
2023/08/04 04:17:28;;;;;;;15.18;4.72;;;13.50;99.90;;;12.84;100.00;101399.09;4168267;28;20021;-83
2023/08/04 04:19:29;;;;;;;7.10;3.72;;;13.50;99.90;;;12.91;100.00;101400.13;4153060;28;20057;-83
2023/08/04 04:21:30;;;;;;;11.70;4.63;;;13.60;99.90;;;12.90;100.00;101406.44;4155859;28;20485;-83
2023/08/04 04:23:31;;;;;;;8.98;4.10;;;13.60;99.90;;;12.99;100.00;101409.97;4151735;28;20034;-83
2023/08/04 04:25:32;;;;;;;10.13;4.30;;;13.60;99.90;;;13.02;100.00;101412.31;4163214;28;20056;-82
2023/08/04 04:27:33;;;;;;;8.02;3.92;;;13.70;99.90;;;12.99;100.00;101404.66;4154725;28;20029;-82
2023/08/04 04:29:35;;;;;;;6.50;3.35;;;13.70;99.90;;;13.05;100.00;101418.09;4160411;28;20045;-82
2023/08/04 04:31:36;;;;;;;6.80;3.95;;;13.70;99.90;;;13.08;100.00;101415.16;4158546;28;20073;-83
2023/08/04 04:33:37;;;;;;;5.45;3.78;;;13.70;99.90;;;13.10;100.00;101415.03;4151896;28;20073;-83
2023/08/04 04:35:38;;;;;;;8.90;4.20;;;13.80;99.90;;;13.11;100.00;101417.50;4169062;28;20030;-83
2023/08/04 04:37:39;;;;;;;12.93;4.10;;;13.80;99.90;;;13.12;100.00;101418.34;4135558;28;20081;-83
2023/08/04 04:39:40;;;;;;;7.07;3.60;;;13.80;99.90;;;13.16;100.00;101431.13;4169249;28;20064;-83
2023/08/04 04:41:41;;;;;;;13.15;4.45;;;13.80;99.90;;;13.21;100.00;101420.06;4169161;28;20021;-83
2023/08/04 04:43:42;;;;;;;10.55;4.40;;;13.90;99.90;;;13.21;100.00;101410.28;4164851;28;20026;-82
2023/08/04 04:45:49;;;;;;;10.90;4.45;;;13.90;99.90;;;13.20;100.00;101416.56;4169190;28;20060;-83
2023/08/04 04:47:50;;;;;;;6.47;3.60;;;13.90;99.90;;;13.23;100.00;101421.56;4142708;28;20030;-82
2023/08/04 04:49:51;;;;;;;6.90;3.70;;;13.90;99.90;;;13.26;100.00;101426.53;4185968;28;20021;-83
2023/08/04 04:51:52;;;;;;;12.88;3.65;;;13.90;99.90;;;13.25;100.00;101422.25;4180465;28;20040;-83
2023/08/04 04:53:53;;;;;;;8.32;3.20;;;13.90;99.90;;;13.25;100.00;101424.91;4168832;28;20025;-82
2023/08/04 04:55:56;;;;;;;8.13;3.80;;;14.00;99.90;;;13.30;100.00;101427.91;4152263;28;20543;-83
2023/08/04 04:57:57;;;;;;;10.13;3.65;;;14.00;99.90;;;13.26;100.00;101426.53;4178543;28;20028;-83
2023/08/04 04:59:58;;;;;;;6.28;3.53;;;14.00;99.90;;;13.30;100.00;101425.25;4167601;28;20476;-83
2023/08/04 05:01:59;;;;;;;9.88;4.18;;;14.00;99.90;;;13.28;100.00;101429.06;4185287;28;20017;-83
2023/08/04 05:03:59;;;;;;;9.70;3.97;;;14.00;99.90;;;13.28;100.00;101432.53;4185640;28;20025;-83
2023/08/04 05:06:00;;;;;;;5.78;3.63;;;14.00;99.90;;;13.30;100.00;101430.56;4158861;28;20034;-83
2023/08/04 05:08:02;;;;;;;7.30;3.42;;;14.00;99.90;;;13.28;100.00;101427.25;4168713;28;20036;-83
2023/08/04 05:10:03;;;;;;;6.95;3.22;;;14.00;99.90;;;13.31;100.00;101428.75;4184457;28;20025;-84
2023/08/04 05:12:05;;;;;;;8.63;4.10;;;14.00;99.90;;;13.32;100.00;101433.88;4167723;28;20098;-83
2023/08/04 05:14:06;;;;;;;9.85;3.90;;;14.00;99.90;;;13.32;100.00;101439.16;4167515;28;20500;-83
2023/08/04 05:16:08;;;;;;;6.57;3.03;;;14.00;99.90;;;13.32;100.00;101436.53;4185196;28;20032;-83
2023/08/04 05:18:08;;;;;;;9.25;4.00;;;14.00;99.90;;;13.32;100.00;101455.06;4152384;28;20046;-83
2023/08/04 05:20:11;;;;;;;12.50;3.83;;;14.00;99.90;;;13.33;100.00;101442.66;4151123;28;20033;-83
2023/08/04 05:22:12;;;;;;;9.00;3.53;;;14.00;99.90;;;13.36;100.00;101447.63;4151003;28;20047;-84
2023/08/04 05:24:13;;;;;;;12.20;3.95;;;14.10;99.90;;;13.34;100.00;101454.94;4168651;28;20026;-83
2023/08/04 05:26:14;;;;;;;8.32;3.28;;;14.10;99.90;;;13.36;100.00;101452.09;4168558;28;20508;-83
2023/08/04 05:28:32;;;;;;;10.00;3.75;;;14.10;99.90;;;13.40;100.00;101458.78;4168725;28;20041;-83
2023/08/04 05:30:33;;;;;;;6.80;3.28;;;14.10;99.90;;;13.44;100.00;101454.81;4161321;28;20045;-83
2023/08/04 05:32:33;;;;;;;6.80;3.55;;;14.10;99.90;;;13.46;100.00;101458.13;4169129;28;20032;-83
2023/08/04 05:34:34;;;;;;;7.15;3.25;;;14.10;99.90;;;13.48;100.00;101461.44;4185256;28;20104;-83
2023/08/04 05:36:35;;;;;;;9.13;3.25;;;14.20;99.90;;;13.49;100.00;101461.31;4185062;28;20040;-83
2023/08/04 05:38:36;;;;;;;9.50;4.30;;;14.20;99.90;;;13.51;100.00;101455.84;4184957;28;20036;-83
2023/08/04 05:40:37;;;;;;;12.18;3.90;;;14.20;99.90;;;13.51;100.00;101463.78;4185198;28;20029;-82
2023/08/04 05:42:38;;;;;;;7.53;3.10;;;14.20;99.90;;;13.55;100.00;101465.16;4169765;28;20467;-84
2023/08/04 05:44:39;;;;;;;4.75;3.15;;;14.20;99.90;;;13.55;100.00;101452.72;4181747;28;20075;-83
2023/08/04 05:46:40;;;;;;;8.98;4.13;;;14.30;99.90;;;13.60;100.00;101460.19;4154194;28;20021;-84
2023/08/04 05:48:41;;;;;;;11.90;4.75;;;14.30;99.90;;;13.61;100.00;101465.34;4154297;28;20500;-83
2023/08/04 05:50:42;;;;;;;9.35;3.97;;;14.30;99.90;;;13.66;100.00;101473.66;4171889;28;20056;-84
2023/08/04 05:52:43;;;;;;;6.40;3.30;;;14.30;99.90;;;13.70;100.00;101471.53;4182017;28;20507;-84
2023/08/04 05:54:44;;;;;;;7.57;3.42;;;14.40;99.90;;;13.74;100.00;101472.84;4137789;28;20018;-83
2023/08/04 05:56:45;;;;;;;7.60;3.72;;;14.40;99.90;;;13.75;100.00;101475.38;4172060;28;20041;-84
2023/08/04 05:58:46;;;;;;;8.75;2.90;;;14.50;99.90;;;13.77;100.00;101477.84;4154188;28;20022;-83
2023/08/04 06:00:47;;;;;;;8.43;3.15;;;14.50;99.90;;;13.80;100.00;101480.16;4143909;28;20447;-84
2023/08/04 06:02:47;;;;;;;8.20;3.30;;;14.50;99.90;;;13.80;100.00;101475.69;4162173;28;20034;-84
2023/08/04 06:04:49;;;;;;;7.22;3.33;;;14.50;99.90;;;13.86;100.00;101484.84;4157751;28;20038;-84
2023/08/04 06:06:50;;;;;;;7.95;3.10;;;14.60;99.90;;;13.92;100.00;101486.84;4170231;28;20048;-84
2023/08/04 06:08:51;;;;;;;7.05;3.10;;;14.60;99.90;;;13.98;100.00;101480.91;4171379;28;20026;-84
2023/08/04 06:10:52;;;;;;;8.18;4.00;;;14.70;99.90;;;13.96;100.00;101482.91;4163402;28;20014;-84
2023/08/04 06:12:53;;;;;;;6.55;3.17;;;14.70;99.90;;;14.00;100.00;101478.94;4157269;28;20097;-83
2023/08/04 06:14:54;;;;;;;6.30;3.30;;;14.70;99.90;;;14.05;100.00;101486.41;4153404;28;20026;-83
2023/08/04 06:16:55;;;;;;;8.80;2.55;;;14.80;99.90;;;14.08;100.00;101486.09;4181627;28;20461;-82
2023/08/04 06:18:58;;;;;;;6.38;2.47;;;14.80;99.90;;;14.15;100.00;101485.31;4171373;28;20022;-83
2023/08/04 06:20:59;;;;;;;7.18;2.90;;;14.80;99.90;;;14.15;100.00;101487.13;4166620;28;20025;-84
2023/08/04 06:22:59;;;;;;;8.77;3.75;;;14.90;99.90;;;14.20;100.00;101501.56;4153616;28;20446;-83
2023/08/04 06:25:01;;;;;;;8.68;3.22;;;15.00;99.90;;;14.23;100.00;101500.41;4153699;28;20065;-82
2023/08/04 06:27:03;;;;;;;7.68;2.70;;;15.00;99.90;;;14.19;100.00;101502.56;4171196;28;20037;-84
2023/08/04 06:29:04;;;;;;;4.70;2.80;;;15.00;99.90;;;14.24;100.00;101497.63;4153369;28;20089;-83
2023/08/04 06:31:05;;;;;;;5.95;3.13;;;15.00;99.90;;;14.37;100.00;101505.13;4153780;28;20033;-82
2023/08/04 06:33:06;;;;;;;7.15;2.97;;;15.10;99.90;;;14.40;100.00;101502.97;4177693;28;20029;-84
2023/08/04 06:35:08;;;;;;;6.30;2.55;;;15.10;99.90;;;14.42;100.00;101494.88;4160541;28;20037;-84
2023/08/04 06:37:08;;;;;;;8.70;3.15;;;15.20;99.90;;;14.50;100.00;101508.16;4149782;28;20030;-84
2023/08/04 06:39:09;;;;;;;10.50;2.80;;;15.20;99.90;;;14.54;100.00;101509.50;4187460;28;20029;-84
2023/08/04 06:41:10;;;;;;;8.10;3.58;;;15.30;99.90;;;14.61;100.00;101510.50;4164350;28;20029;-84
2023/08/04 06:43:11;;;;;;;5.47;2.58;;;15.30;99.90;;;14.70;100.00;101511.31;4171000;28;20033;-84
2023/08/04 06:45:12;;;;;;;6.40;2.80;;;15.40;99.90;;;14.80;100.00;101518.16;4165401;28;20025;-84
2023/08/04 06:47:13;;;;;;;5.15;2.80;;;15.50;99.90;;;14.82;100.00;101512.66;4170808;28;20025;-83
2023/08/04 06:49:14;;;;;;;6.28;2.72;;;15.60;99.90;;;14.84;100.00;101518.66;4171024;28;20439;-84
2023/08/04 06:51:15;;;;;;;6.75;3.03;;;15.60;99.90;;;14.96;100.00;101526.13;4177845;28;20037;-84
2023/08/04 06:53:16;;;;;;;8.15;2.70;;;15.70;99.90;;;15.03;100.00;101518.34;4141245;28;20038;-81
2023/08/04 06:55:17;;;;;;;6.60;2.72;;;15.70;99.90;;;15.12;100.00;101516.50;4170619;28;20052;-83
2023/08/04 06:57:18;;;;;;;7.15;2.83;;;15.80;99.90;;;15.15;100.00;101518.81;4175253;28;20021;-83
2023/08/04 06:59:18;;;;;;;6.80;2.97;;;15.90;99.90;;;15.18;100.00;101529.13;4162257;28;20465;-84
2023/08/04 07:01:19;;;;;;;7.80;2.63;;;15.90;99.90;;;15.25;100.00;101533.63;4152611;28;20032;-84
2023/08/04 07:03:20;;;;;;;4.57;2.60;;;16.00;99.90;;;15.27;100.00;101528.97;4170488;28;20036;-85
2023/08/04 07:05:21;;;;;;;8.88;2.78;;;16.00;99.90;;;15.31;100.00;101532.13;4170737;28;20048;-83
2023/08/04 07:07:22;;;;;;;7.15;2.53;;;16.00;99.90;;;15.34;100.00;101532.63;4160052;28;20034;-83
2023/08/04 07:09:23;;;;;;;10.38;2.72;;;16.00;99.90;;;15.44;100.00;101535.09;4152902;28;20028;-83
2023/08/04 07:11:24;;;;;;;8.25;2.80;;;16.10;99.90;;;15.55;100.00;101529.47;4184097;28;20024;-83
2023/08/04 07:13:24;;;;;;;4.95;2.60;;;16.20;99.90;;;15.69;100.00;101531.41;4165862;28;20026;-83
2023/08/04 07:15:25;;;;;;;7.32;3.05;;;16.30;99.90;;;15.93;100.00;101527.84;4171828;28;20425;-84
2023/08/04 07:17:26;;;;;;;6.47;2.67;;;16.50;99.90;;;16.22;100.00;101536.06;4159901;28;20053;-84
2023/08/04 07:19:27;;;;;;;10.57;3.03;;;16.60;99.90;;;16.44;100.00;101537.13;4169315;28;20029;-83
2023/08/04 07:21:28;;;;;;;5.10;2.45;;;16.90;99.90;;;16.42;100.00;101541.81;4166044;28;20056;-84
2023/08/04 07:23:29;;;;;;;5.70;2.35;;;17.00;99.90;;;16.53;100.00;101550.22;4152760;28;20022;-83
2023/08/04 07:25:30;;;;;;;8.35;2.40;;;17.10;99.90;;;16.48;100.00;101544.59;4170074;28;20033;-83
2023/08/04 07:27:30;;;;;;;5.03;1.75;;;17.10;99.90;;;16.28;100.00;101535.38;4174382;28;20422;-83
2023/08/04 07:29:34;;;;;;;4.88;2.83;;;17.10;99.90;;;16.39;100.00;101552.81;4156961;28;20123;-84
2023/08/04 07:31:35;;;;;;;10.45;3.17;;;17.00;99.90;;;16.40;100.00;101557.94;4174097;28;20079;-85
2023/08/04 07:33:37;;;;;;;5.30;2.38;;;17.00;99.90;;;16.46;100.00;101553.75;4170141;28;20033;-84
2023/08/04 07:35:38;;;;;;;9.52;2.17;;;17.10;99.90;;;16.32;100.00;101557.16;4165443;28;20033;-84
2023/08/04 07:37:39;;;;;;;6.25;2.78;;;17.10;99.90;;;16.28;100.00;101551.34;4172955;28;20451;-84
2023/08/04 07:39:39;;;;;;;6.25;2.60;;;17.00;99.90;;;16.43;100.00;101557.59;4186669;28;20021;-85
2023/08/04 07:41:41;;;;;;;9.13;3.10;;;17.00;99.90;;;16.48;100.00;101555.25;4186105;28;20025;-83
2023/08/04 07:43:42;;;;;;;6.22;2.70;;;17.10;99.90;;;16.55;100.00;101564.22;4152427;28;20022;-84
2023/08/04 07:45:43;;;;;;;5.30;2.17;;;17.20;99.90;;;16.71;100.00;101562.47;4168908;28;20026;-83
2023/08/04 07:47:44;;;;;;;4.70;2.40;;;17.30;99.90;;;16.91;100.00;101558.34;4159019;28;20025;-83
2023/08/04 07:49:45;;;;;;;7.57;2.95;;;17.40;99.90;;;16.85;100.00;101559.03;4159214;28;20485;-85
2023/08/04 07:51:46;;;;;;;5.43;2.17;;;17.40;99.90;;;16.68;100.00;101568.97;4161235;28;20060;-84
2023/08/04 07:53:47;;;;;;;3.70;1.83;;;17.40;99.90;;;16.79;100.00;101562.41;4173061;28;20091;-85
2023/08/04 07:55:56;;;;;;;4.13;2.85;;;17.40;99.90;;;16.88;100.00;101558.69;4164773;28;20084;-84
2023/08/04 07:57:57;;;;;;;10.02;2.85;;;17.50;99.90;;;17.05;100.00;101563.72;4152469;28;20030;-83
2023/08/04 07:59:58;;;;;;;3.58;2.08;;;17.60;99.90;;;17.32;100.00;101575.69;4148647;28;20034;-84
2023/08/04 08:01:59;;;;;;;10.13;4.00;;;17.80;99.90;;;17.50;100.00;101572.72;4186157;28;20417;-83
2023/08/04 08:04:01;;;;;;;8.93;2.45;;;17.90;99.90;;;17.59;100.00;101574.31;4162259;28;20084;-84
2023/08/04 08:06:03;;;;;;;6.63;3.05;;;18.00;99.90;;;17.53;100.00;101580.34;4136531;28;20023;-84
2023/08/04 08:08:04;;;;;;;7.53;3.05;;;18.20;99.90;;;17.54;100.00;101566.84;4148044;28;20052;-84
2023/08/04 08:10:05;;;;;;;10.65;2.50;;;18.20;99.90;;;17.58;100.00;101573.50;4152566;28;20038;-84
2023/08/04 08:12:07;;;;;;;6.25;2.88;;;18.20;99.90;;;17.75;100.00;101576.81;4158239;28;20037;-84
2023/08/04 08:14:08;;;;;;;8.25;2.42;;;18.30;99.90;;;17.87;100.00;101587.88;4142759;28;20065;-83
2023/08/04 08:16:12;;;;;;;9.70;2.20;;;18.30;99.90;;;17.92;100.00;101582.81;4176883;28;20028;-84
2023/08/04 08:18:14;;;;;;;9.27;2.35;;;18.40;99.90;;;17.81;100.00;101580.59;4155164;28;20507;-84